createdAt,value
2023-04-14T08:31:35.638Z,34.86
2023-04-14T08:36:37.172Z,33.96
2023-04-14T08:41:38.631Z,33.52
2023-04-14T08:46:40.036Z,33.07
2023-04-14T08:51:44.670Z,32.62
2023-04-14T08:56:46.089Z,32.68
2023-04-14T09:01:47.509Z,32.60
2023-04-14T09:06:48.932Z,32.42
2023-04-14T09:11:50.551Z,32.19
2023-04-14T09:16:53.773Z,32.07
2023-04-14T09:21:55.900Z,31.86
2023-04-14T09:26:57.338Z,31.92
2023-04-14T09:31:59.019Z,31.83
2023-04-14T09:37:07.315Z,31.77
2023-04-14T09:42:08.741Z,31.77
2023-04-14T09:47:10.443Z,31.84
2023-04-14T09:52:11.825Z,31.60
2023-04-14T09:57:24.485Z,31.91
2023-04-14T10:02:26.947Z,31.77
2023-04-14T10:07:28.776Z,31.76
2023-04-14T10:12:30.320Z,31.83
2023-04-14T10:17:33.888Z,32.02
2023-04-14T10:22:36.125Z,32.21
2023-04-14T10:27:37.672Z,32.09
2023-04-14T10:32:40.441Z,32.18
2023-04-14T10:37:51.950Z,32.15
2023-04-14T10:42:54.239Z,32.11
2023-04-14T10:47:55.760Z,32.19
2023-04-14T10:52:58.704Z,32.26
2023-04-14T10:58:05.101Z,31.99
2023-04-14T11:03:16.867Z,32.02
2023-04-14T11:08:33.827Z,32.07
2023-04-14T11:13:35.374Z,32.11
2023-04-14T11:18:45.520Z,32.18
2023-04-14T11:23:47.968Z,32.03
2023-04-14T11:28:49.419Z,32.06
2023-04-14T11:33:50.847Z,32.31
2023-04-14T11:38:52.230Z,32.30
2023-04-14T11:43:54.246Z,32.31
2023-04-14T11:48:56.414Z,32.19
2023-04-14T11:53:59.567Z,32.33
2023-04-14T11:59:01.850Z,32.33
2023-04-14T12:04:03.499Z,32.58
2023-04-14T12:09:08.325Z,32.36
2023-04-14T12:14:09.721Z,32.38
2023-04-14T12:19:11.223Z,32.43
2023-04-14T12:24:12.602Z,32.78
2023-04-14T12:29:14.123Z,32.41
2023-04-14T12:34:17.763Z,33.00
2023-04-14T12:39:20.355Z,33.30
2023-04-14T12:44:24.198Z,33.21
2023-04-14T12:49:32.876Z,33.21
2023-04-14T12:54:47.426Z,33.43
2023-04-14T12:59:48.927Z,33.22
2023-04-14T13:04:50.390Z,33.29
2023-04-14T13:09:52.427Z,33.44
2023-04-14T13:14:53.868Z,33.43
2023-04-14T13:19:55.268Z,33.58
2023-04-14T13:24:59.735Z,33.58
2023-04-14T13:30:01.516Z,33.39
2023-04-14T13:35:02.992Z,33.65
2023-04-14T13:40:04.694Z,33.74
2023-04-14T13:45:06.961Z,33.72
2023-04-14T13:50:08.650Z,33.56
2023-04-14T13:55:10.036Z,33.74
2023-04-14T14:00:11.758Z,33.99
2023-04-14T14:05:14.520Z,34.17
2023-04-14T14:10:15.893Z,34.02
2023-04-14T14:15:17.341Z,34.07
2023-04-14T14:20:18.915Z,34.18
2023-04-14T14:25:21.439Z,34.16
2023-04-14T14:30:23.022Z,34.22
2023-04-14T14:35:24.449Z,34.47
2023-04-14T14:40:25.923Z,34.33
2023-04-14T14:45:31.093Z,34.67
2023-04-14T14:50:33.003Z,34.59
2023-04-14T14:55:35.078Z,34.57
2023-04-14T15:00:37.850Z,34.68
2023-04-14T15:05:39.265Z,34.74
2023-04-14T15:10:40.777Z,34.47
2023-04-14T15:15:42.472Z,34.88
2023-04-14T15:20:43.869Z,34.88
2023-04-14T15:25:45.373Z,34.76
2023-04-14T15:30:46.776Z,34.61
2023-04-14T15:35:48.213Z,34.68
2023-04-14T15:40:49.599Z,34.45
2023-04-14T15:45:51.261Z,34.45
2023-04-14T15:50:52.654Z,34.53
2023-04-14T15:55:54.324Z,34.71
2023-04-14T16:00:56.060Z,34.35
2023-04-14T16:06:06.551Z,34.60
2023-04-14T16:11:13.066Z,34.68
2023-04-14T16:16:15.048Z,34.18
2023-04-14T16:21:16.666Z,34.73
2023-04-14T16:26:18.103Z,34.67
2023-04-14T16:31:19.554Z,34.69
2023-04-14T16:36:23.910Z,34.51
2023-04-14T16:41:25.847Z,34.68
2023-04-14T16:46:27.252Z,34.55
2023-04-14T16:51:28.687Z,34.48
2023-04-14T16:56:30.479Z,34.66
2023-04-14T17:01:32.653Z,34.38
2023-04-14T17:06:34.089Z,34.45
2023-04-14T17:11:35.449Z,34.37
2023-04-14T17:16:37.871Z,34.51
2023-04-14T17:21:39.477Z,34.56
2023-04-14T17:26:41.055Z,34.31
2023-04-14T17:31:42.562Z,34.51
2023-04-14T17:36:44.101Z,34.38
2023-04-14T17:41:45.808Z,34.29
2023-04-14T17:46:47.210Z,34.30
2023-04-14T17:51:48.611Z,34.16
2023-04-14T17:56:50.237Z,33.94
2023-04-14T18:01:51.636Z,34.11
2023-04-14T18:06:53.525Z,34.05
2023-04-14T18:11:54.899Z,33.96
2023-04-14T18:16:57.049Z,33.94
2023-04-14T18:21:58.499Z,34.22
2023-04-14T18:26:59.866Z,33.87
2023-04-14T18:32:01.256Z,33.86
2023-04-14T18:37:03.906Z,34.03
2023-04-14T18:42:05.384Z,33.94
2023-04-14T18:47:06.770Z,33.92
2023-04-14T18:52:08.137Z,34.08
2023-04-14T18:57:09.887Z,33.80
2023-04-14T19:02:13.628Z,33.82
2023-04-14T19:07:15.326Z,34.09
2023-04-14T19:17:23.016Z,33.66
2023-04-14T19:22:24.798Z,33.90
2023-04-14T19:27:26.281Z,33.66
2023-04-14T19:32:27.678Z,33.73
2023-04-14T19:37:29.104Z,34.00
2023-04-14T19:42:30.491Z,34.01
2023-04-14T19:47:31.906Z,33.75
2023-04-14T19:52:33.441Z,33.63
2023-04-14T19:57:34.820Z,33.75
2023-04-14T20:02:36.328Z,33.66
2023-04-14T20:07:37.818Z,33.94
2023-04-14T20:12:40.226Z,33.72
2023-04-14T20:17:41.644Z,33.77
2023-04-14T20:22:43.056Z,33.82
2023-04-14T20:27:44.985Z,33.83
2023-04-14T20:32:46.381Z,33.66
2023-04-14T20:37:47.873Z,33.55
2023-04-14T20:42:49.251Z,33.51
2023-04-14T20:47:50.732Z,33.77
2023-04-14T20:52:52.171Z,33.69
2023-04-14T20:57:53.553Z,33.63
2023-04-14T21:02:54.989Z,33.70
2023-04-14T21:07:56.572Z,33.62
2023-04-14T21:15:30.428Z,33.56
2023-04-14T21:18:20.091Z,33.57
2023-04-14T21:23:21.859Z,33.87
2023-04-14T21:28:23.263Z,33.39
2023-04-14T21:33:25.147Z,33.49
2023-04-14T21:38:27.836Z,33.80
2023-04-14T21:43:29.240Z,33.44
2023-04-14T21:48:30.871Z,33.48
2023-04-14T21:53:32.273Z,33.53
2023-04-14T21:58:33.712Z,33.40
2023-04-14T22:03:37.549Z,33.58
2023-04-14T22:08:39.438Z,33.54
2023-04-14T22:13:41.052Z,33.44
2023-04-14T22:18:42.490Z,33.51
2023-04-14T22:23:43.881Z,33.45
2023-04-14T22:28:45.288Z,33.20
2023-04-14T22:33:46.862Z,33.55
2023-04-14T22:38:48.444Z,33.47
2023-04-14T22:43:49.863Z,33.42
2023-04-14T22:48:51.434Z,33.44
2023-04-14T22:53:52.802Z,33.47
2023-04-14T22:58:57.486Z,33.39
2023-04-14T23:03:59.191Z,33.32
2023-04-14T23:09:00.734Z,33.35
2023-04-14T23:14:02.668Z,33.36
2023-04-14T23:19:04.300Z,33.34
2023-04-14T23:24:06.525Z,33.23
2023-04-14T23:29:08.041Z,33.27
2023-04-14T23:34:10.713Z,33.36
2023-04-14T23:39:12.541Z,33.12
2023-04-14T23:44:13.950Z,33.24
2023-04-14T23:49:23.721Z,33.17
2023-04-14T23:54:26.161Z,33.22
2023-04-14T23:59:28.221Z,33.39
